createdAt,value
2018-02-16T00:00:07.078Z,92.20
2018-02-16T00:02:33.066Z,92.00
2018-02-16T00:04:59.076Z,92.10
2018-02-16T00:07:25.097Z,92.30
2018-02-16T00:09:51.100Z,92.20
2018-02-16T00:12:17.363Z,92.20
2018-02-16T00:14:43.408Z,92.10
2018-02-16T00:17:09.380Z,92.10
2018-02-16T00:19:35.335Z,91.90
2018-02-16T00:22:02.053Z,91.80
2018-02-16T00:24:28.040Z,91.80
2018-02-16T00:26:54.053Z,91.70
2018-02-16T00:29:20.767Z,91.70
2018-02-16T00:31:46.730Z,91.70
2018-02-16T00:34:13.427Z,91.90
2018-02-16T00:36:39.383Z,91.70
2018-02-16T00:39:05.368Z,91.80
2018-02-16T00:41:32.071Z,91.60
2018-02-16T00:43:58.053Z,91.60
2018-02-16T00:46:24.802Z,91.60
2018-02-16T00:48:51.563Z,91.90
2018-02-16T00:51:18.270Z,92.00
2018-02-16T00:53:44.271Z,91.90
2018-02-16T00:56:10.227Z,92.00
2018-02-16T00:58:36.207Z,92.00
2018-02-16T01:01:02.934Z,92.20
2018-02-16T01:03:28.915Z,91.90
2018-02-16T01:05:54.895Z,92.00
2018-02-16T01:08:20.877Z,92.00
2018-02-16T01:10:47.614Z,92.10
2018-02-16T01:13:13.578Z,92.10
2018-02-16T01:15:39.565Z,92.20
2018-02-16T01:18:05.542Z,92.20
2018-02-16T01:20:31.544Z,92.10
2018-02-16T01:22:57.601Z,92.20
2018-02-16T01:25:24.341Z,92.20
2018-02-16T01:27:50.298Z,92.00
2018-02-16T01:30:17.022Z,92.40
2018-02-16T01:32:43.038Z,92.40
2018-02-16T01:35:08.995Z,92.50
2018-02-16T01:37:34.980Z,92.80
2018-02-16T01:40:00.958Z,92.90
2018-02-16T01:42:26.932Z,93.00
2018-02-16T01:44:52.961Z,93.00
2018-02-16T01:47:18.934Z,93.00
2018-02-16T01:49:57.375Z,93.00
2018-02-16T01:52:23.457Z,93.00
2018-02-16T01:54:50.169Z,93.00
2018-02-16T01:57:16.142Z,93.00
2018-02-16T01:59:42.851Z,93.10
2018-02-16T02:02:08.831Z,93.00
2018-02-16T02:04:35.538Z,93.10
2018-02-16T02:07:01.512Z,93.30
2018-02-16T02:09:27.475Z,93.00
2018-02-16T02:11:53.476Z,92.70
2018-02-16T02:14:19.447Z,92.80
2018-02-16T02:16:45.420Z,92.80
2018-02-16T02:19:11.393Z,92.90
2018-02-16T02:21:38.095Z,93.10
2018-02-16T02:24:04.083Z,93.00
2018-02-16T02:26:30.776Z,93.40
2018-02-16T02:28:56.812Z,93.10
2018-02-16T02:31:22.826Z,93.10
2018-02-16T02:33:48.808Z,93.10
2018-02-16T02:36:14.764Z,93.40
2018-02-16T02:38:40.739Z,93.10
2018-02-16T02:41:06.691Z,93.10
2018-02-16T02:43:32.646Z,93.10
2018-02-16T02:45:58.623Z,93.10
2018-02-16T02:48:25.351Z,93.00
2018-02-16T02:50:51.323Z,93.00
2018-02-16T02:53:17.304Z,93.00
2018-02-16T02:55:43.266Z,93.10
2018-02-16T02:58:09.227Z,93.10
2018-02-16T03:00:35.193Z,93.40
2018-02-16T03:03:01.155Z,93.20
2018-02-16T03:05:27.152Z,93.20
2018-02-16T03:07:53.137Z,93.30
2018-02-16T03:10:19.108Z,93.40
2018-02-16T03:12:45.087Z,93.70
2018-02-16T03:15:11.055Z,93.70
2018-02-16T03:17:37.756Z,94.30
2018-02-16T03:20:03.771Z,94.30
2018-02-16T03:22:29.749Z,94.80
2018-02-16T03:24:55.736Z,94.80
2018-02-16T03:27:21.719Z,94.80
2018-02-16T03:29:47.688Z,94.70
2018-02-16T03:32:14.395Z,95.00
2018-02-16T03:34:40.388Z,95.00
2018-02-16T03:37:07.127Z,95.60
2018-02-16T03:39:33.833Z,95.70
2018-02-16T03:41:59.824Z,95.60
2018-02-16T03:44:26.586Z,96.90
2018-02-16T03:46:53.320Z,97.10
2018-02-16T03:49:19.277Z,97.10
2018-02-16T03:51:45.248Z,97.30
2018-02-16T03:54:11.208Z,97.60
2018-02-16T03:56:37.166Z,98.20
2018-02-16T03:59:03.876Z,98.30
2018-02-16T04:01:29.929Z,98.30
2018-02-16T04:03:55.937Z,98.30
2018-02-16T04:06:21.929Z,98.40
2018-02-16T04:08:48.656Z,98.70
2018-02-16T04:11:15.372Z,98.60
2018-02-16T04:13:41.335Z,98.60
2018-02-16T04:16:07.315Z,98.50
2018-02-16T04:18:33.297Z,98.70
2018-02-16T04:20:59.304Z,98.40
2018-02-16T04:23:25.305Z,98.50
2018-02-16T04:25:52.046Z,98.50
2018-02-16T04:28:18.018Z,98.40
2018-02-16T04:30:44.015Z,98.40
2018-02-16T04:33:09.995Z,98.60
2018-02-16T04:35:35.949Z,99.30
2018-02-16T04:38:01.911Z,99.30
2018-02-16T04:40:27.910Z,99.20
2018-02-16T04:42:54.000Z,99.30
2018-02-16T04:45:19.983Z,99.30
2018-02-16T04:47:45.956Z,99.40
2018-02-16T04:50:11.918Z,99.80
2018-02-16T04:52:38.655Z,99.90
2018-02-16T04:55:06.116Z,99.90
2018-02-16T04:57:32.099Z,99.90
2018-02-16T04:59:58.074Z,99.90
2018-02-16T05:02:24.068Z,99.90
2018-02-16T05:04:50.037Z,99.90
2018-02-16T05:07:15.987Z,99.90
2018-02-16T05:09:42.692Z,99.90
2018-02-16T05:12:08.675Z,99.90
2018-02-16T05:14:34.648Z,99.90
2018-02-16T05:17:01.393Z,99.90
2018-02-16T05:19:28.128Z,99.90
2018-02-16T05:21:54.157Z,99.90
2018-02-16T05:24:20.102Z,99.90
2018-02-16T05:26:46.800Z,99.90
2018-02-16T05:29:12.783Z,99.90
2018-02-16T05:31:38.743Z,99.90
2018-02-16T05:34:04.696Z,99.90
2018-02-16T05:36:30.663Z,99.90
2018-02-16T05:38:56.672Z,99.90
2018-02-16T05:41:22.812Z,99.90
2018-02-16T05:43:48.795Z,99.90
2018-02-16T05:46:14.751Z,99.90
2018-02-16T05:48:41.467Z,99.90
2018-02-16T05:51:07.452Z,99.90
2018-02-16T05:53:34.175Z,99.90
2018-02-16T05:56:00.156Z,99.90
2018-02-16T05:58:26.142Z,99.90
2018-02-16T06:00:52.152Z,99.90
2018-02-16T06:03:18.157Z,99.90
2018-02-16T06:05:44.146Z,99.90
2018-02-16T06:08:10.147Z,99.90
2018-02-16T06:10:36.115Z,99.90
2018-02-16T06:13:02.112Z,99.90
2018-02-16T06:15:28.102Z,99.90
2018-02-16T06:17:54.094Z,99.90
2018-02-16T06:20:20.108Z,99.90
2018-02-16T06:22:46.076Z,99.90
2018-02-16T06:25:12.072Z,99.90
2018-02-16T06:27:38.033Z,99.90
2018-02-16T06:30:04.015Z,99.90
2018-02-16T06:32:29.984Z,99.90
2018-02-16T06:34:56.006Z,99.90
2018-02-16T06:37:22.834Z,99.90
2018-02-16T06:39:48.832Z,99.90
2018-02-16T06:42:14.793Z,99.90
2018-02-16T06:44:40.775Z,99.90
2018-02-16T06:47:06.750Z,99.90
2018-02-16T06:49:32.724Z,99.90
2018-02-16T06:51:59.471Z,99.90
2018-02-16T06:54:26.199Z,99.90
2018-02-16T06:56:52.195Z,99.90
2018-02-16T06:59:18.148Z,99.90
2018-02-16T07:01:44.167Z,99.90
2018-02-16T07:04:10.140Z,99.90
2018-02-16T07:06:36.118Z,99.90
2018-02-16T07:09:02.116Z,99.90
2018-02-16T07:11:28.171Z,99.90
2018-02-16T07:13:54.243Z,99.90
2018-02-16T07:16:20.214Z,99.90
2018-02-16T07:18:46.173Z,99.90
2018-02-16T07:21:12.884Z,99.90
2018-02-16T07:23:38.847Z,99.90
2018-02-16T07:26:04.863Z,99.90
2018-02-16T07:28:30.837Z,99.90
2018-02-16T07:30:56.820Z,99.40
2018-02-16T07:33:22.860Z,98.10
2018-02-16T07:35:48.824Z,97.20
2018-02-16T07:38:14.818Z,95.30
2018-02-16T07:40:40.771Z,93.70
2018-02-16T07:43:06.732Z,90.80
2018-02-16T07:45:32.700Z,90.60
2018-02-16T07:47:59.431Z,86.10
2018-02-16T07:50:25.463Z,86.00
2018-02-16T07:52:51.470Z,81.50
2018-02-16T07:55:17.413Z,73.00
2018-02-16T07:57:43.397Z,70.90
2018-02-16T08:00:10.118Z,67.90
2018-02-16T08:02:36.080Z,67.90
2018-02-16T08:05:02.810Z,66.70
2018-02-16T08:07:28.789Z,66.60
2018-02-16T08:09:54.960Z,65.60
2018-02-16T08:12:20.930Z,63.90
2018-02-16T08:14:47.653Z,58.50
2018-02-16T08:17:13.616Z,58.60
2018-02-16T08:19:39.578Z,61.50
2018-02-16T08:22:05.540Z,57.80
2018-02-16T08:24:31.561Z,62.80
2018-02-16T08:26:57.579Z,60.70
2018-02-16T08:29:24.359Z,57.90
2018-02-16T08:31:50.323Z,57.80
2018-02-16T08:34:16.327Z,57.60
2018-02-16T08:36:42.308Z,56.40
2018-02-16T08:39:08.380Z,60.00
2018-02-16T08:41:35.103Z,59.70
2018-02-16T08:44:01.188Z,59.70
2018-02-16T08:46:27.180Z,60.60
2018-02-16T08:48:53.155Z,59.50
2018-02-16T08:51:19.160Z,60.50
2018-02-16T08:53:45.847Z,66.50
2018-02-16T08:56:11.811Z,66.40
2018-02-16T08:58:37.775Z,68.80
2018-02-16T09:01:03.755Z,70.30
2018-02-16T09:03:29.725Z,69.70
2018-02-16T09:05:55.760Z,69.50
2018-02-16T09:08:21.774Z,71.70
2018-02-16T09:10:47.776Z,73.20
2018-02-16T09:13:14.459Z,75.30
2018-02-16T09:15:40.487Z,75.30
2018-02-16T09:18:06.439Z,75.10
2018-02-16T09:20:32.416Z,76.00
2018-02-16T09:22:59.144Z,77.00
2018-02-16T09:25:25.170Z,76.90
2018-02-16T09:27:51.139Z,77.60
2018-02-16T09:30:17.869Z,79.60
2018-02-16T09:32:43.846Z,79.30
2018-02-16T09:35:09.811Z,79.60
2018-02-16T09:37:35.812Z,79.80
2018-02-16T09:40:02.527Z,78.70
2018-02-16T09:42:28.521Z,78.60
2018-02-16T09:44:54.547Z,80.40
2018-02-16T09:47:20.542Z,79.60
2018-02-16T09:49:46.515Z,79.20
2018-02-16T09:52:12.490Z,79.10
2018-02-16T09:54:38.476Z,78.70
2018-02-16T09:57:05.195Z,77.80
2018-02-16T09:59:31.180Z,77.70
2018-02-16T10:01:57.159Z,76.60
2018-02-16T10:04:23.932Z,77.30
2018-02-16T10:06:49.916Z,77.10
2018-02-16T10:09:15.924Z,78.60
2018-02-16T10:11:42.640Z,81.50
2018-02-16T10:14:08.633Z,81.50
2018-02-16T10:16:34.595Z,79.50
2018-02-16T10:19:00.569Z,79.90
2018-02-16T10:21:27.308Z,80.20
2018-02-16T10:23:53.316Z,80.10
2018-02-16T10:26:19.291Z,80.00
2018-02-16T10:28:45.993Z,80.80
2018-02-16T10:31:11.955Z,80.70
2018-02-16T10:33:37.946Z,81.80
2018-02-16T10:36:03.925Z,82.40
2018-02-16T10:38:29.905Z,82.40
2018-02-16T10:40:56.723Z,81.80
2018-02-16T10:43:23.481Z,82.50
2018-02-16T10:45:49.499Z,82.50
2018-02-16T10:48:15.490Z,82.90
2018-02-16T10:50:41.504Z,82.60
2018-02-16T10:53:07.475Z,84.20
2018-02-16T10:55:33.464Z,84.10
2018-02-16T10:57:59.468Z,84.60
2018-02-16T11:00:31.542Z,83.00
2018-02-16T11:03:03.738Z,84.00
2018-02-16T11:05:35.921Z,81.90
2018-02-16T11:08:01.939Z,82.00
2018-02-16T11:10:27.952Z,82.40
2018-02-16T11:12:53.961Z,81.50
2018-02-16T11:15:20.666Z,81.30
2018-02-16T11:17:46.645Z,81.30
2018-02-16T11:20:12.604Z,82.20
2018-02-16T11:22:38.589Z,82.30
2018-02-16T11:25:04.549Z,82.50
2018-02-16T11:27:30.552Z,83.10
2018-02-16T11:29:56.540Z,83.10
2018-02-16T11:32:23.291Z,82.50
2018-02-16T11:34:50.013Z,83.00
2018-02-16T11:37:15.986Z,83.00
2018-02-16T11:39:41.968Z,82.10
2018-02-16T11:42:07.990Z,81.60
2018-02-16T11:44:40.967Z,79.60
2018-02-16T11:47:06.911Z,80.30
2018-02-16T11:49:32.874Z,80.50
2018-02-16T11:51:58.867Z,79.80
2018-02-16T11:54:24.922Z,80.40
2018-02-16T11:56:50.873Z,79.80
2018-02-16T11:59:16.842Z,79.20
2018-02-16T12:01:42.812Z,78.30
2018-02-16T12:04:08.795Z,79.30
2018-02-16T12:06:34.751Z,79.20
2018-02-16T12:09:00.725Z,78.90
2018-02-16T12:11:26.737Z,77.70
2018-02-16T12:13:53.458Z,78.10
2018-02-16T12:16:19.443Z,78.00
2018-02-16T12:18:45.401Z,78.00
2018-02-16T12:21:11.363Z,76.20
2018-02-16T12:23:38.847Z,77.00
2018-02-16T12:26:04.804Z,77.00
2018-02-16T12:28:31.609Z,76.10
2018-02-16T12:30:57.651Z,76.10
2018-02-16T12:33:23.641Z,77.10
2018-02-16T12:35:49.659Z,74.10
2018-02-16T12:38:15.606Z,72.20
2018-02-16T12:40:41.604Z,71.70
2018-02-16T12:43:07.555Z,73.60
2018-02-16T12:45:34.284Z,73.70
2018-02-16T12:48:01.012Z,73.80
2018-02-16T12:50:27.048Z,73.80
2018-02-16T12:52:53.059Z,73.40
2018-02-16T12:55:19.028Z,73.00
2018-02-16T12:57:45.027Z,71.80
2018-02-16T13:00:11.746Z,71.30
2018-02-16T13:02:37.722Z,71.30
2018-02-16T13:05:03.705Z,71.00
2018-02-16T13:07:30.638Z,71.80
2018-02-16T13:09:56.642Z,66.80
2018-02-16T13:12:23.419Z,61.30
2018-02-16T13:14:49.363Z,61.30
2018-02-16T13:17:15.339Z,59.50
2018-02-16T13:19:41.299Z,58.60
2018-02-16T13:22:08.023Z,54.50
2018-02-16T13:24:33.991Z,54.60
2018-02-16T13:27:00.716Z,50.80
2018-02-16T13:29:26.718Z,50.80
2018-02-16T13:31:52.710Z,51.80
2018-02-16T13:34:19.439Z,52.00
2018-02-16T13:36:45.417Z,52.00
2018-02-16T13:39:11.404Z,52.00
2018-02-16T13:41:37.375Z,51.80
2018-02-16T13:44:03.343Z,52.90
2018-02-16T13:46:29.364Z,51.20
2018-02-16T13:48:55.368Z,54.20
2018-02-16T13:51:22.213Z,56.40
2018-02-16T13:53:48.960Z,54.50
2018-02-16T13:56:14.904Z,54.40
2018-02-16T13:58:40.856Z,53.50
2018-02-16T14:01:07.584Z,56.10
2018-02-16T14:03:33.551Z,56.20
2018-02-16T14:05:59.575Z,53.00
2018-02-16T14:08:25.610Z,54.70
2018-02-16T14:10:52.385Z,52.40
2018-02-16T14:13:18.349Z,52.40
2018-02-16T14:15:44.331Z,52.40
2018-02-16T14:18:11.056Z,52.00
2018-02-16T14:20:37.058Z,52.00
2018-02-16T14:23:03.771Z,51.10
2018-02-16T14:25:30.491Z,51.00
2018-02-16T14:27:56.541Z,50.90
2018-02-16T14:30:22.555Z,51.90
2018-02-16T14:32:48.549Z,50.80
2018-02-16T14:35:14.499Z,51.00
2018-02-16T14:37:40.477Z,50.80
2018-02-16T14:40:07.173Z,54.00
2018-02-16T14:42:33.175Z,54.20
2018-02-16T14:44:59.138Z,55.60
2018-02-16T14:47:25.127Z,49.70
2018-02-16T14:49:51.127Z,50.60
2018-02-16T14:52:17.086Z,51.60
2018-02-16T14:54:43.052Z,51.80
2018-02-16T14:57:09.012Z,52.40
2018-02-16T14:59:35.779Z,56.30
2018-02-16T15:02:01.751Z,56.30
2018-02-16T15:04:27.801Z,55.90
2018-02-16T15:06:53.790Z,55.20
2018-02-16T15:09:19.774Z,55.40
2018-02-16T15:11:45.763Z,54.50
2018-02-16T15:14:11.731Z,54.90
2018-02-16T15:16:37.679Z,53.80
2018-02-16T15:19:03.647Z,55.00
2018-02-16T15:21:30.375Z,53.90
2018-02-16T15:23:56.363Z,53.90
2018-02-16T15:26:22.383Z,55.80
2018-02-16T15:28:48.362Z,55.30
2018-02-16T15:31:14.332Z,56.20
2018-02-16T15:33:41.038Z,55.50
2018-02-16T15:36:07.016Z,55.40
2018-02-16T15:38:33.727Z,56.70
2018-02-16T15:40:59.739Z,56.60
2018-02-16T15:43:25.827Z,57.00
2018-02-16T15:45:51.806Z,57.80
2018-02-16T15:48:17.765Z,59.10
2018-02-16T15:50:43.743Z,58.50
2018-02-16T15:53:09.715Z,59.20
2018-02-16T15:55:35.688Z,58.90
2018-02-16T15:58:01.700Z,59.80
2018-02-16T16:00:27.695Z,59.20
2018-02-16T16:02:54.461Z,60.40
2018-02-16T16:05:20.442Z,60.30
2018-02-16T16:07:46.412Z,62.60
2018-02-16T16:10:12.427Z,64.50
2018-02-16T16:12:38.408Z,66.50
2018-02-16T16:15:04.378Z,64.90
2018-02-16T16:17:30.411Z,64.80
2018-02-16T16:19:56.434Z,65.30
2018-02-16T16:22:22.502Z,64.80
2018-02-16T16:24:49.238Z,66.50
2018-02-16T16:27:15.204Z,66.20
2018-02-16T16:29:41.188Z,66.70
2018-02-16T16:32:07.141Z,68.50
2018-02-16T16:34:33.107Z,69.60
2018-02-16T16:36:59.139Z,68.90
2018-02-16T16:39:25.192Z,68.30
2018-02-16T16:41:51.141Z,68.40
2018-02-16T16:44:17.844Z,69.20
2018-02-16T16:46:43.819Z,69.10
2018-02-16T16:49:09.810Z,69.60
2018-02-16T16:51:35.775Z,69.60
2018-02-16T16:54:01.737Z,70.10
2018-02-16T16:56:28.470Z,71.90
2018-02-16T16:58:55.297Z,73.30
2018-02-16T17:01:21.267Z,72.90
2018-02-16T17:03:47.244Z,73.10
2018-02-16T17:06:13.203Z,73.70
2018-02-16T17:08:39.188Z,74.30
2018-02-16T17:11:05.903Z,74.10
2018-02-16T17:13:31.904Z,74.10
2018-02-16T17:15:57.932Z,75.30
2018-02-16T17:18:23.907Z,77.40
2018-02-16T17:20:49.863Z,79.20
2018-02-16T17:23:15.828Z,77.30
2018-02-16T17:25:41.775Z,76.40
2018-02-16T17:28:07.763Z,76.20
2018-02-16T17:30:33.719Z,77.30
2018-02-16T17:33:00.447Z,79.40
2018-02-16T17:35:26.501Z,79.30
2018-02-16T17:37:52.490Z,80.40
2018-02-16T17:40:18.507Z,81.50
2018-02-16T17:42:44.476Z,81.70
2018-02-16T17:45:10.454Z,82.00
2018-02-16T17:47:37.151Z,82.20
2018-02-16T17:50:03.116Z,82.20
2018-02-16T17:52:29.072Z,81.00
2018-02-16T17:54:55.782Z,79.80
2018-02-16T17:57:21.796Z,79.80
2018-02-16T17:59:47.759Z,80.60
2018-02-16T18:02:13.709Z,80.50
2018-02-16T18:04:39.667Z,80.90
2018-02-16T18:07:06.375Z,81.70
2018-02-16T18:09:32.344Z,81.80
2018-02-16T18:11:59.123Z,83.30
2018-02-16T18:14:25.088Z,82.90
2018-02-16T18:16:51.049Z,82.50
2018-02-16T18:19:17.009Z,82.40
2018-02-16T18:21:43.731Z,83.10
2018-02-16T18:24:09.710Z,83.10
2018-02-16T18:26:35.671Z,83.40
2018-02-16T18:29:01.691Z,83.40
2018-02-16T18:31:27.719Z,83.90
2018-02-16T18:33:53.733Z,83.60
2018-02-16T18:36:20.432Z,84.10
2018-02-16T18:38:46.401Z,84.20
2018-02-16T18:41:12.359Z,84.80
2018-02-16T18:43:39.056Z,85.50
2018-02-16T18:46:05.003Z,85.50
2018-02-16T18:48:31.004Z,86.20
2018-02-16T18:50:56.986Z,86.70
2018-02-16T18:53:23.009Z,87.30
2018-02-16T18:55:48.983Z,86.10
2018-02-16T18:58:15.692Z,85.90
2018-02-16T19:00:41.695Z,85.20
2018-02-16T19:03:07.655Z,85.90
2018-02-16T19:05:33.652Z,85.80
2018-02-16T19:08:00.407Z,86.30
2018-02-16T19:10:26.480Z,86.30
2018-02-16T19:12:52.486Z,86.80
2018-02-16T19:15:18.431Z,86.70
2018-02-16T19:17:44.395Z,86.50
2018-02-16T19:20:10.657Z,85.60
2018-02-16T19:22:37.526Z,85.50
2018-02-16T19:25:04.253Z,86.00
2018-02-16T19:27:30.240Z,86.00
2018-02-16T19:29:57.157Z,86.60
2018-02-16T19:32:24.360Z,87.40
2018-02-16T19:34:50.363Z,87.50
2018-02-16T19:37:16.320Z,87.90
2018-02-16T19:39:43.495Z,89.40
2018-02-16T19:42:09.523Z,89.40
2018-02-16T19:44:36.236Z,89.50
2018-02-16T19:47:02.510Z,89.40
2018-02-16T19:49:28.566Z,88.60
2018-02-16T19:52:01.500Z,87.90
2018-02-16T19:54:27.520Z,88.00
2018-02-16T19:56:53.839Z,86.50
2018-02-16T19:59:19.836Z,86.90
2018-02-16T20:01:45.795Z,86.70
2018-02-16T20:04:13.517Z,87.90
2018-02-16T20:06:39.636Z,87.30
2018-02-16T20:09:05.626Z,86.90
2018-02-16T20:11:31.635Z,86.60
2018-02-16T20:13:57.617Z,87.00
2018-02-16T20:16:24.367Z,87.50
2018-02-16T20:18:50.344Z,87.40
2018-02-16T20:21:16.763Z,88.20
2018-02-16T20:23:42.777Z,88.90
2018-02-16T20:26:09.517Z,90.20
2018-02-16T20:28:35.498Z,90.20
2018-02-16T20:31:01.448Z,90.30
2018-02-16T20:33:27.459Z,90.60
2018-02-16T20:35:54.186Z,91.00
2018-02-16T20:38:20.152Z,91.00
2018-02-16T20:40:46.195Z,90.80
2018-02-16T20:43:13.148Z,90.40
2018-02-16T20:45:39.880Z,90.20
2018-02-16T20:48:06.580Z,90.10
2018-02-16T20:50:32.564Z,90.10
2018-02-16T20:52:58.638Z,90.10
2018-02-16T20:55:24.734Z,90.20
2018-02-16T20:57:50.754Z,90.40
2018-02-16T21:00:16.898Z,90.00
2018-02-16T21:02:50.736Z,88.90
2018-02-16T21:05:17.506Z,89.40
2018-02-16T21:07:44.197Z,90.20
2018-02-16T21:10:10.322Z,90.20
2018-02-16T21:12:37.096Z,90.40
2018-02-16T21:15:03.056Z,90.40
2018-02-16T21:17:30.503Z,90.40
2018-02-16T21:19:57.008Z,90.30
2018-02-16T21:22:23.047Z,90.40
2018-02-16T21:24:49.041Z,90.40
2018-02-16T21:27:16.476Z,90.30
2018-02-16T21:29:42.459Z,90.30
2018-02-16T21:32:09.225Z,90.70
2018-02-16T21:34:35.955Z,90.60
2018-02-16T21:37:01.960Z,90.60
2018-02-16T21:39:27.968Z,90.60
2018-02-16T21:41:54.013Z,90.70
2018-02-16T21:44:19.992Z,90.90
2018-02-16T21:46:45.980Z,90.80
2018-02-16T21:49:11.937Z,90.50
2018-02-16T21:51:37.895Z,90.60
2018-02-16T21:54:03.856Z,90.90
2018-02-16T21:56:30.282Z,90.80
2018-02-16T21:58:56.280Z,91.10
2018-02-16T22:01:22.326Z,91.30
2018-02-16T22:03:48.323Z,91.40
2018-02-16T22:06:15.027Z,91.20
2018-02-16T22:08:40.988Z,91.20
2018-02-16T22:11:07.080Z,91.60
2018-02-16T22:13:33.058Z,91.60
2018-02-16T22:15:59.085Z,91.40
2018-02-16T22:18:25.084Z,91.20
2018-02-16T22:20:51.058Z,91.30
2018-02-16T22:23:17.028Z,91.60
2018-02-16T22:25:44.206Z,91.40
2018-02-16T22:28:10.215Z,91.40
2018-02-16T22:30:36.903Z,91.10
2018-02-16T22:33:02.944Z,91.10
2018-02-16T22:35:29.043Z,91.40
2018-02-16T22:37:55.865Z,91.70
2018-02-16T22:40:22.040Z,91.60
2018-02-16T22:42:48.801Z,91.70
2018-02-16T22:45:15.606Z,91.90
2018-02-16T22:47:41.582Z,91.90
2018-02-16T22:50:08.316Z,92.00
2018-02-16T22:52:34.282Z,92.00
2018-02-16T22:55:01.398Z,91.80
2018-02-16T22:57:31.038Z,91.80
2018-02-16T22:59:57.136Z,91.80
2018-02-16T23:02:23.164Z,91.60
2018-02-16T23:04:49.152Z,91.60
2018-02-16T23:07:15.114Z,91.50
2018-02-16T23:09:41.104Z,91.50
2018-02-16T23:12:07.086Z,91.40
2018-02-16T23:14:33.052Z,91.50
2018-02-16T23:16:59.104Z,91.50
2018-02-16T23:19:25.148Z,91.40
2018-02-16T23:21:51.131Z,91.50
2018-02-16T23:24:17.122Z,91.60
2018-02-16T23:26:43.083Z,91.80
2018-02-16T23:29:09.039Z,91.70
2018-02-16T23:31:35.538Z,91.30
2018-02-16T23:34:01.528Z,91.00
2018-02-16T23:36:27.523Z,90.90
2018-02-16T23:38:54.291Z,90.60
2018-02-16T23:41:21.180Z,90.50
2018-02-16T23:43:47.112Z,90.40
2018-02-16T23:46:13.068Z,90.40
2018-02-16T23:48:39.793Z,90.80
2018-02-16T23:51:05.762Z,90.80
2018-02-16T23:53:32.492Z,91.50
2018-02-16T23:55:58.496Z,91.50
2018-02-16T23:58:24.507Z,91.60
